sensor_id;sensor_type;location;lat;lon;timestamp;P1;durP1;ratioP1;P2;durP2;ratioP2
45077;SDS011;60508;42.622;25.416;2024-01-10T00:01:23;5.25;;;3.33;;
45077;SDS011;60508;42.622;25.416;2024-01-10T00:03:56;6.65;;;2.92;;
45077;SDS011;60508;42.622;25.416;2024-01-10T00:06:43;2.80;;;1.85;;
45077;SDS011;60508;42.622;25.416;2024-01-10T00:09:11;4.15;;;2.45;;
45077;SDS011;60508;42.622;25.416;2024-01-10T00:11:37;4.78;;;2.90;;
45077;SDS011;60508;42.622;25.416;2024-01-10T00:14:24;3.80;;;1.95;;
45077;SDS011;60508;42.622;25.416;2024-01-10T00:16:51;9.35;;;2.90;;
45077;SDS011;60508;42.622;25.416;2024-01-10T00:19:18;13.32;;;4.32;;
45077;SDS011;60508;42.622;25.416;2024-01-10T00:21:44;4.20;;;2.20;;
45077;SDS011;60508;42.622;25.416;2024-01-10T00:24:12;4.88;;;3.22;;
45077;SDS011;60508;42.622;25.416;2024-01-10T00:26:39;4.97;;;2.58;;
45077;SDS011;60508;42.622;25.416;2024-01-10T00:29:05;5.97;;;3.63;;
45077;SDS011;60508;42.622;25.416;2024-01-10T00:31:33;8.23;;;4.22;;
45077;SDS011;60508;42.622;25.416;2024-01-10T00:33:59;8.73;;;4.38;;
45077;SDS011;60508;42.622;25.416;2024-01-10T00:36:46;9.98;;;3.63;;
45077;SDS011;60508;42.622;25.416;2024-01-10T00:39:13;5.65;;;2.78;;
45077;SDS011;60508;42.622;25.416;2024-01-10T00:41:42;6.95;;;2.58;;
45077;SDS011;60508;42.622;25.416;2024-01-10T00:44:09;2.88;;;1.90;;
45077;SDS011;60508;42.622;25.416;2024-01-10T00:46:36;1.20;;;1.10;;
45077;SDS011;60508;42.622;25.416;2024-01-10T00:49:03;3.08;;;1.48;;
45077;SDS011;60508;42.622;25.416;2024-01-10T00:51:30;1.95;;;1.30;;
45077;SDS011;60508;42.622;25.416;2024-01-10T00:54:16;16.10;;;7.38;;
45077;SDS011;60508;42.622;25.416;2024-01-10T00:56:44;1.85;;;1.20;;
45077;SDS011;60508;42.622;25.416;2024-01-10T00:59:11;0.95;;;0.73;;
45077;SDS011;60508;42.622;25.416;2024-01-10T01:01:37;3.20;;;1.30;;
45077;SDS011;60508;42.622;25.416;2024-01-10T01:04:04;3.60;;;1.33;;
45077;SDS011;60508;42.622;25.416;2024-01-10T01:06:51;0.73;;;0.47;;
45077;SDS011;60508;42.622;25.416;2024-01-10T01:09:17;1.27;;;0.82;;
45077;SDS011;60508;42.622;25.416;2024-01-10T01:12:05;1.20;;;0.80;;
45077;SDS011;60508;42.622;25.416;2024-01-10T01:14:32;3.42;;;1.65;;
45077;SDS011;60508;42.622;25.416;2024-01-10T01:16:59;1.30;;;1.08;;
45077;SDS011;60508;42.622;25.416;2024-01-10T01:19:26;2.92;;;2.03;;
45077;SDS011;60508;42.622;25.416;2024-01-10T01:21:53;6.93;;;4.47;;
45077;SDS011;60508;42.622;25.416;2024-01-10T01:24:20;4.55;;;2.90;;
45077;SDS011;60508;42.622;25.416;2024-01-10T01:27:07;5.18;;;2.88;;
45077;SDS011;60508;42.622;25.416;2024-01-10T01:29:33;4.65;;;2.65;;
45077;SDS011;60508;42.622;25.416;2024-01-10T01:32:00;6.72;;;4.72;;
45077;SDS011;60508;42.622;25.416;2024-01-10T01:34:47;3.97;;;2.28;;
45077;SDS011;60508;42.622;25.416;2024-01-10T01:37:14;12.60;;;3.42;;
45077;SDS011;60508;42.622;25.416;2024-01-10T01:39:41;4.78;;;2.65;;
45077;SDS011;60508;42.622;25.416;2024-01-10T01:42:08;9.38;;;4.20;;
45077;SDS011;60508;42.622;25.416;2024-01-10T01:44:35;5.80;;;4.03;;
45077;SDS011;60508;42.622;25.416;2024-01-10T01:47:02;4.53;;;2.67;;
45077;SDS011;60508;42.622;25.416;2024-01-10T01:49:49;8.88;;;2.53;;
45077;SDS011;60508;42.622;25.416;2024-01-10T01:52:16;6.97;;;2.33;;
45077;SDS011;60508;42.622;25.416;2024-01-10T01:54:49;4.53;;;2.72;;
45077;SDS011;60508;42.622;25.416;2024-01-10T01:57:25;3.33;;;2.10;;
45077;SDS011;60508;42.622;25.416;2024-01-10T01:59:53;3.15;;;2.70;;
45077;SDS011;60508;42.622;25.416;2024-01-10T02:02:19;5.03;;;3.22;;
45077;SDS011;60508;42.622;25.416;2024-01-10T02:04:48;4.07;;;2.33;;
45077;SDS011;60508;42.622;25.416;2024-01-10T02:07:15;4.25;;;3.05;;
45077;SDS011;60508;42.622;25.416;2024-01-10T02:10:03;5.10;;;2.45;;
45077;SDS011;60508;42.622;25.416;2024-01-10T02:12:30;3.80;;;2.00;;
45077;SDS011;60508;42.622;25.416;2024-01-10T02:14:56;4.70;;;2.35;;
45077;SDS011;60508;42.622;25.416;2024-01-10T02:17:44;3.40;;;3.08;;
45077;SDS011;60508;42.622;25.416;2024-01-10T02:20:11;3.85;;;1.42;;
45077;SDS011;60508;42.622;25.416;2024-01-10T02:22:44;3.35;;;2.40;;
45077;SDS011;60508;42.622;25.416;2024-01-10T02:25:32;5.28;;;2.25;;
45077;SDS011;60508;42.622;25.416;2024-01-10T02:27:59;3.42;;;1.65;;
45077;SDS011;60508;42.622;25.416;2024-01-10T02:30:25;3.03;;;1.85;;
45077;SDS011;60508;42.622;25.416;2024-01-10T02:32:52;2.78;;;1.60;;
45077;SDS011;60508;42.622;25.416;2024-01-10T02:35:19;2.25;;;1.75;;
45077;SDS011;60508;42.622;25.416;2024-01-10T02:37:46;3.95;;;1.35;;
45077;SDS011;60508;42.622;25.416;2024-01-10T02:40:33;2.08;;;1.40;;
45077;SDS011;60508;42.622;25.416;2024-01-10T02:42:59;5.18;;;1.77;;
45077;SDS011;60508;42.622;25.416;2024-01-10T02:45:26;2.53;;;1.88;;
45077;SDS011;60508;42.622;25.416;2024-01-10T02:47:53;4.68;;;1.52;;
45077;SDS011;60508;42.622;25.416;2024-01-10T02:50:19;2.30;;;2.03;;
45077;SDS011;60508;42.622;25.416;2024-01-10T02:53:07;2.15;;;1.83;;
45077;SDS011;60508;42.622;25.416;2024-01-10T02:55:34;3.92;;;1.80;;
45077;SDS011;60508;42.622;25.416;2024-01-10T02:58:20;2.85;;;1.60;;
45077;SDS011;60508;42.622;25.416;2024-01-10T03:00:48;3.90;;;2.20;;
45077;SDS011;60508;42.622;25.416;2024-01-10T03:03:35;6.90;;;2.40;;
45077;SDS011;60508;42.622;25.416;2024-01-10T03:06:02;3.63;;;1.92;;
45077;SDS011;60508;42.622;25.416;2024-01-10T03:08:29;2.45;;;1.67;;
45077;SDS011;60508;42.622;25.416;2024-01-10T03:10:55;2.33;;;1.45;;
45077;SDS011;60508;42.622;25.416;2024-01-10T03:13:23;1.80;;;1.13;;
45077;SDS011;60508;42.622;25.416;2024-01-10T03:16:09;3.05;;;1.85;;
45077;SDS011;60508;42.622;25.416;2024-01-10T03:18:36;5.38;;;1.55;;
45077;SDS011;60508;42.622;25.416;2024-01-10T03:21:23;9.48;;;3.42;;
45077;SDS011;60508;42.622;25.416;2024-01-10T03:23:53;6.78;;;2.63;;
45077;SDS011;60508;42.622;25.416;2024-01-10T03:26:42;3.67;;;2.53;;
45077;SDS011;60508;42.622;25.416;2024-01-10T03:29:09;2.42;;;1.55;;
45077;SDS011;60508;42.622;25.416;2024-01-10T03:31:36;5.78;;;2.00;;
45077;SDS011;60508;42.622;25.416;2024-01-10T03:34:22;5.32;;;2.40;;
45077;SDS011;60508;42.622;25.416;2024-01-10T03:36:49;2.60;;;2.05;;
45077;SDS011;60508;42.622;25.416;2024-01-10T03:39:16;5.32;;;1.83;;
45077;SDS011;60508;42.622;25.416;2024-01-10T03:42:02;5.88;;;3.15;;
45077;SDS011;60508;42.622;25.416;2024-01-10T03:44:29;5.03;;;3.10;;
45077;SDS011;60508;42.622;25.416;2024-01-10T03:47:16;4.00;;;1.95;;
45077;SDS011;60508;42.622;25.416;2024-01-10T03:49:43;4.13;;;1.92;;
45077;SDS011;60508;42.622;25.416;2024-01-10T03:52:10;3.38;;;2.03;;
45077;SDS011;60508;42.622;25.416;2024-01-10T03:54:57;5.38;;;2.17;;
45077;SDS011;60508;42.622;25.416;2024-01-10T03:57:24;1.65;;;1.30;;
45077;SDS011;60508;42.622;25.416;2024-01-10T03:59:51;2.58;;;1.67;;
45077;SDS011;60508;42.622;25.416;2024-01-10T04:02:17;1.98;;;1.45;;
45077;SDS011;60508;42.622;25.416;2024-01-10T04:05:08;2.60;;;1.55;;
45077;SDS011;60508;42.622;25.416;2024-01-10T04:07:39;1.40;;;1.02;;
45077;SDS011;60508;42.622;25.416;2024-01-10T04:10:30;3.70;;;1.15;;
45077;SDS011;60508;42.622;25.416;2024-01-10T04:12:56;1.05;;;0.95;;
45077;SDS011;60508;42.622;25.416;2024-01-10T04:15:31;1.45;;;1.30;;
45077;SDS011;60508;42.622;25.416;2024-01-10T04:18:00;2.88;;;1.48;;
45077;SDS011;60508;42.622;25.416;2024-01-10T04:20:27;4.70;;;1.52;;
45077;SDS011;60508;42.622;25.416;2024-01-10T04:23:14;2.30;;;1.27;;
45077;SDS011;60508;42.622;25.416;2024-01-10T04:25:41;4.13;;;1.20;;
45077;SDS011;60508;42.622;25.416;2024-01-10T04:28:28;1.75;;;1.50;;
45077;SDS011;60508;42.622;25.416;2024-01-10T04:30:55;4.13;;;2.35;;
45077;SDS011;60508;42.622;25.416;2024-01-10T04:33:22;3.10;;;2.20;;
45077;SDS011;60508;42.622;25.416;2024-01-10T04:36:09;6.75;;;3.55;;
45077;SDS011;60508;42.622;25.416;2024-01-10T04:38:36;6.07;;;2.92;;
45077;SDS011;60508;42.622;25.416;2024-01-10T04:41:23;3.13;;;2.70;;
45077;SDS011;60508;42.622;25.416;2024-01-10T04:43:51;6.97;;;2.85;;
45077;SDS011;60508;42.622;25.416;2024-01-10T04:46:38;5.07;;;2.88;;
45077;SDS011;60508;42.622;25.416;2024-01-10T04:49:07;6.75;;;2.92;;
45077;SDS011;60508;42.622;25.416;2024-01-10T04:51:34;7.15;;;3.65;;
45077;SDS011;60508;42.622;25.416;2024-01-10T04:54:01;25.42;;;10.80;;
45077;SDS011;60508;42.622;25.416;2024-01-10T04:56:27;60.92;;;20.92;;
45077;SDS011;60508;42.622;25.416;2024-01-10T04:58:54;12.30;;;5.65;;
45077;SDS011;60508;42.622;25.416;2024-01-10T05:01:41;7.15;;;3.30;;
45077;SDS011;60508;42.622;25.416;2024-01-10T05:04:08;11.55;;;4.43;;
45077;SDS011;60508;42.622;25.416;2024-01-10T05:06:34;12.95;;;4.50;;
45077;SDS011;60508;42.622;25.416;2024-01-10T05:09:01;36.85;;;15.25;;
45077;SDS011;60508;42.622;25.416;2024-01-10T05:11:27;26.33;;;10.88;;
45077;SDS011;60508;42.622;25.416;2024-01-10T05:13:55;25.30;;;10.68;;
45077;SDS011;60508;42.622;25.416;2024-01-10T05:16:22;19.40;;;7.05;;
45077;SDS011;60508;42.622;25.416;2024-01-10T05:19:08;14.20;;;5.22;;
45077;SDS011;60508;42.622;25.416;2024-01-10T05:21:35;13.52;;;8.93;;
45077;SDS011;60508;42.622;25.416;2024-01-10T05:24:02;11.75;;;6.93;;
45077;SDS011;60508;42.622;25.416;2024-01-10T05:26:49;10.10;;;4.43;;
45077;SDS011;60508;42.622;25.416;2024-01-10T05:29:17;2.70;;;2.50;;
45077;SDS011;60508;42.622;25.416;2024-01-10T05:32:06;10.57;;;2.03;;
45077;SDS011;60508;42.622;25.416;2024-01-10T05:34:32;7.30;;;3.33;;
45077;SDS011;60508;42.622;25.416;2024-01-10T05:36:59;7.88;;;3.45;;
45077;SDS011;60508;42.622;25.416;2024-01-10T05:39:46;7.28;;;3.40;;
45077;SDS011;60508;42.622;25.416;2024-01-10T05:42:13;14.13;;;3.63;;
45077;SDS011;60508;42.622;25.416;2024-01-10T05:44:40;8.05;;;4.15;;
45077;SDS011;60508;42.622;25.416;2024-01-10T05:47:27;12.13;;;4.72;;
45077;SDS011;60508;42.622;25.416;2024-01-10T05:49:54;5.03;;;3.22;;
45077;SDS011;60508;42.622;25.416;2024-01-10T05:52:41;5.18;;;3.17;;
45077;SDS011;60508;42.622;25.416;2024-01-10T05:55:09;6.47;;;3.90;;
45077;SDS011;60508;42.622;25.416;2024-01-10T05:57:36;10.65;;;4.38;;
45077;SDS011;60508;42.622;25.416;2024-01-10T06:00:03;15.60;;;4.85;;
45077;SDS011;60508;42.622;25.416;2024-01-10T06:02:56;10.90;;;4.88;;
45077;SDS011;60508;42.622;25.416;2024-01-10T06:05:22;7.07;;;4.43;;
45077;SDS011;60508;42.622;25.416;2024-01-10T06:07:50;9.02;;;5.95;;
45077;SDS011;60508;42.622;25.416;2024-01-10T06:10:36;16.13;;;7.30;;
45077;SDS011;60508;42.622;25.416;2024-01-10T06:13:03;14.57;;;7.22;;
45077;SDS011;60508;42.622;25.416;2024-01-10T06:15:30;12.98;;;6.57;;
45077;SDS011;60508;42.622;25.416;2024-01-10T06:17:57;7.30;;;3.95;;
45077;SDS011;60508;42.622;25.416;2024-01-10T06:20:44;14.25;;;5.15;;
45077;SDS011;60508;42.622;25.416;2024-01-10T06:23:11;13.88;;;5.82;;
45077;SDS011;60508;42.622;25.416;2024-01-10T06:25:57;7.80;;;4.78;;
45077;SDS011;60508;42.622;25.416;2024-01-10T06:28:24;11.80;;;5.35;;
45077;SDS011;60508;42.622;25.416;2024-01-10T06:30:51;13.75;;;5.88;;
45077;SDS011;60508;42.622;25.416;2024-01-10T06:33:18;12.07;;;5.82;;
45077;SDS011;60508;42.622;25.416;2024-01-10T06:35:46;21.83;;;9.30;;
45077;SDS011;60508;42.622;25.416;2024-01-10T06:38:13;18.08;;;9.15;;
45077;SDS011;60508;42.622;25.416;2024-01-10T06:40:40;20.45;;;8.68;;
45077;SDS011;60508;42.622;25.416;2024-01-10T06:43:07;12.50;;;6.82;;
45077;SDS011;60508;42.622;25.416;2024-01-10T06:45:34;13.15;;;6.88;;
45077;SDS011;60508;42.622;25.416;2024-01-10T06:48:21;40.58;;;17.92;;
45077;SDS011;60508;42.622;25.416;2024-01-10T06:50:48;24.35;;;7.90;;
45077;SDS011;60508;42.622;25.416;2024-01-10T06:53:15;10.70;;;6.72;;
45077;SDS011;60508;42.622;25.416;2024-01-10T06:56:02;21.17;;;9.98;;
45077;SDS011;60508;42.622;25.416;2024-01-10T06:58:29;27.50;;;12.90;;
45077;SDS011;60508;42.622;25.416;2024-01-10T07:01:16;30.92;;;11.45;;
45077;SDS011;60508;42.622;25.416;2024-01-10T07:03:42;41.35;;;14.18;;
45077;SDS011;60508;42.622;25.416;2024-01-10T07:06:31;35.78;;;14.60;;
45077;SDS011;60508;42.622;25.416;2024-01-10T07:08:58;39.15;;;15.88;;
45077;SDS011;60508;42.622;25.416;2024-01-10T07:11:48;38.25;;;16.38;;
45077;SDS011;60508;42.622;25.416;2024-01-10T07:14:16;25.45;;;13.60;;
45077;SDS011;60508;42.622;25.416;2024-01-10T07:17:03;21.65;;;10.60;;
45077;SDS011;60508;42.622;25.416;2024-01-10T07:19:30;13.32;;;7.43;;
45077;SDS011;60508;42.622;25.416;2024-01-10T07:21:57;12.55;;;6.47;;
45077;SDS011;60508;42.622;25.416;2024-01-10T07:24:44;12.55;;;6.53;;
45077;SDS011;60508;42.622;25.416;2024-01-10T07:27:13;9.98;;;5.78;;
45077;SDS011;60508;42.622;25.416;2024-01-10T07:29:41;23.42;;;5.38;;
45077;SDS011;60508;42.622;25.416;2024-01-10T07:32:08;17.17;;;7.75;;
45077;SDS011;60508;42.622;25.416;2024-01-10T07:34:57;9.90;;;5.95;;
45077;SDS011;60508;42.622;25.416;2024-01-10T07:40:01;14.68;;;5.80;;
45077;SDS011;60508;42.622;25.416;2024-01-10T07:42:33;20.88;;;7.80;;
45077;SDS011;60508;42.622;25.416;2024-01-10T07:45:00;9.10;;;5.57;;
45077;SDS011;60508;42.622;25.416;2024-01-10T07:47:31;13.10;;;4.13;;
45077;SDS011;60508;42.622;25.416;2024-01-10T07:49:58;6.93;;;4.40;;
45077;SDS011;60508;42.622;25.416;2024-01-10T07:52:25;2.60;;;2.40;;
45077;SDS011;60508;42.622;25.416;2024-01-10T07:54:53;7.75;;;3.50;;
45077;SDS011;60508;42.622;25.416;2024-01-10T07:57:40;8.43;;;4.60;;
45077;SDS011;60508;42.622;25.416;2024-01-10T08:00:08;8.93;;;5.38;;
45077;SDS011;60508;42.622;25.416;2024-01-10T08:02:59;8.00;;;3.63;;
45077;SDS011;60508;42.622;25.416;2024-01-10T08:05:27;9.10;;;3.60;;
45077;SDS011;60508;42.622;25.416;2024-01-10T08:07:54;5.88;;;4.03;;
45077;SDS011;60508;42.622;25.416;2024-01-10T08:10:22;6.68;;;4.60;;
45077;SDS011;60508;42.622;25.416;2024-01-10T08:12:50;10.63;;;4.38;;
45077;SDS011;60508;42.622;25.416;2024-01-10T08:18:06;13.82;;;7.40;;
45077;SDS011;60508;42.622;25.416;2024-01-10T08:20:33;12.10;;;6.88;;
45077;SDS011;60508;42.622;25.416;2024-01-10T08:23:20;17.27;;;7.00;;
45077;SDS011;60508;42.622;25.416;2024-01-10T08:25:47;13.27;;;5.30;;
45077;SDS011;60508;42.622;25.416;2024-01-10T08:28:34;12.07;;;4.50;;
45077;SDS011;60508;42.622;25.416;2024-01-10T08:31:00;17.10;;;8.10;;
45077;SDS011;60508;42.622;25.416;2024-01-10T08:33:47;28.13;;;12.13;;
45077;SDS011;60508;42.622;25.416;2024-01-10T08:36:14;21.88;;;12.23;;
45077;SDS011;60508;42.622;25.416;2024-01-10T08:38:42;19.70;;;9.75;;
45077;SDS011;60508;42.622;25.416;2024-01-10T08:41:09;19.15;;;9.35;;
45077;SDS011;60508;42.622;25.416;2024-01-10T08:43:38;17.85;;;8.23;;
45077;SDS011;60508;42.622;25.416;2024-01-10T08:46:25;19.08;;;9.20;;
45077;SDS011;60508;42.622;25.416;2024-01-10T08:48:52;16.58;;;6.80;;
45077;SDS011;60508;42.622;25.416;2024-01-10T08:51:38;9.90;;;5.20;;
45077;SDS011;60508;42.622;25.416;2024-01-10T08:54:07;16.90;;;6.20;;
45077;SDS011;60508;42.622;25.416;2024-01-10T08:56:53;16.33;;;8.40;;
45077;SDS011;60508;42.622;25.416;2024-01-10T08:59:20;13.70;;;8.40;;
45077;SDS011;60508;42.622;25.416;2024-01-10T09:02:07;15.40;;;7.03;;
45077;SDS011;60508;42.622;25.416;2024-01-10T09:04:34;24.67;;;11.32;;
45077;SDS011;60508;42.622;25.416;2024-01-10T09:07:01;15.00;;;7.57;;
45077;SDS011;60508;42.622;25.416;2024-01-10T09:09:28;16.25;;;9.07;;
45077;SDS011;60508;42.622;25.416;2024-01-10T09:11:55;17.60;;;8.30;;
45077;SDS011;60508;42.622;25.416;2024-01-10T09:14:23;17.73;;;9.48;;
45077;SDS011;60508;42.622;25.416;2024-01-10T09:17:09;29.77;;;9.27;;
45077;SDS011;60508;42.622;25.416;2024-01-10T09:19:36;21.35;;;8.85;;
45077;SDS011;60508;42.622;25.416;2024-01-10T09:22:03;15.02;;;7.20;;
45077;SDS011;60508;42.622;25.416;2024-01-10T09:24:50;13.43;;;6.75;;
45077;SDS011;60508;42.622;25.416;2024-01-10T09:27:17;9.90;;;5.50;;
45077;SDS011;60508;42.622;25.416;2024-01-10T09:29:45;16.25;;;8.00;;
45077;SDS011;60508;42.622;25.416;2024-01-10T09:32:12;20.48;;;8.00;;
45077;SDS011;60508;42.622;25.416;2024-01-10T09:34:59;15.35;;;9.02;;
45077;SDS011;60508;42.622;25.416;2024-01-10T09:37:26;16.30;;;8.48;;
45077;SDS011;60508;42.622;25.416;2024-01-10T09:39:53;12.75;;;7.65;;
45077;SDS011;60508;42.622;25.416;2024-01-10T09:42:21;9.70;;;6.53;;
45077;SDS011;60508;42.622;25.416;2024-01-10T09:44:51;9.20;;;5.90;;
45077;SDS011;60508;42.622;25.416;2024-01-10T09:47:19;10.60;;;5.30;;
45077;SDS011;60508;42.622;25.416;2024-01-10T09:50:07;8.50;;;4.15;;
45077;SDS011;60508;42.622;25.416;2024-01-10T09:52:37;5.60;;;3.47;;
45077;SDS011;60508;42.622;25.416;2024-01-10T09:55:08;5.05;;;3.50;;
45077;SDS011;60508;42.622;25.416;2024-01-10T09:57:36;8.90;;;4.87;;
45077;SDS011;60508;42.622;25.416;2024-01-10T10:00:03;7.72;;;4.85;;
45077;SDS011;60508;42.622;25.416;2024-01-10T10:02:33;11.52;;;4.72;;
45077;SDS011;60508;42.622;25.416;2024-01-10T10:05:02;7.22;;;3.28;;
45077;SDS011;60508;42.622;25.416;2024-01-10T10:07:54;5.05;;;3.35;;
45077;SDS011;60508;42.622;25.416;2024-01-10T10:10:20;9.85;;;3.17;;
45077;SDS011;60508;42.622;25.416;2024-01-10T10:13:08;6.82;;;2.78;;
45077;SDS011;60508;42.622;25.416;2024-01-10T10:15:38;3.05;;;2.33;;
45077;SDS011;60508;42.622;25.416;2024-01-10T10:18:04;5.72;;;3.33;;
45077;SDS011;60508;42.622;25.416;2024-01-10T10:20:31;3.22;;;2.38;;
45077;SDS011;60508;42.622;25.416;2024-01-10T10:23:04;5.00;;;1.90;;
45077;SDS011;60508;42.622;25.416;2024-01-10T10:25:53;3.88;;;2.22;;
45077;SDS011;60508;42.622;25.416;2024-01-10T10:28:21;4.03;;;2.53;;
45077;SDS011;60508;42.622;25.416;2024-01-10T10:31:08;5.90;;;2.63;;
45077;SDS011;60508;42.622;25.416;2024-01-10T10:33:36;4.03;;;2.30;;
45077;SDS011;60508;42.622;25.416;2024-01-10T10:36:04;6.65;;;2.75;;
45077;SDS011;60508;42.622;25.416;2024-01-10T10:38:31;2.30;;;1.80;;
45077;SDS011;60508;42.622;25.416;2024-01-10T10:40:58;4.88;;;3.17;;
45077;SDS011;60508;42.622;25.416;2024-01-10T10:43:46;3.00;;;2.08;;
45077;SDS011;60508;42.622;25.416;2024-01-10T10:46:16;3.47;;;2.78;;
45077;SDS011;60508;42.622;25.416;2024-01-10T10:49:05;4.97;;;2.38;;
45077;SDS011;60508;42.622;25.416;2024-01-10T10:51:58;3.50;;;2.20;;
45077;SDS011;60508;42.622;25.416;2024-01-10T10:54:28;4.45;;;3.47;;
45077;SDS011;60508;42.622;25.416;2024-01-10T10:57:16;4.78;;;3.30;;
45077;SDS011;60508;42.622;25.416;2024-01-10T10:59:47;14.05;;;8.88;;
45077;SDS011;60508;42.622;25.416;2024-01-10T11:02:16;7.05;;;4.97;;
45077;SDS011;60508;42.622;25.416;2024-01-10T11:04:50;3.83;;;2.72;;
45077;SDS011;60508;42.622;25.416;2024-01-10T11:07:41;5.03;;;1.65;;
45077;SDS011;60508;42.622;25.416;2024-01-10T11:10:23;3.45;;;2.03;;
45077;SDS011;60508;42.622;25.416;2024-01-10T11:16:18;4.30;;;2.63;;
45077;SDS011;60508;42.622;25.416;2024-01-10T11:25:14;4.78;;;2.72;;
45077;SDS011;60508;42.622;25.416;2024-01-10T11:27:43;2.35;;;1.83;;
45077;SDS011;60508;42.622;25.416;2024-01-10T11:30:11;3.50;;;2.15;;
45077;SDS011;60508;42.622;25.416;2024-01-10T11:32:38;5.97;;;3.08;;
45077;SDS011;60508;42.622;25.416;2024-01-10T11:35:05;7.07;;;3.42;;
45077;SDS011;60508;42.622;25.416;2024-01-10T11:38:05;10.27;;;5.15;;
45077;SDS011;60508;42.622;25.416;2024-01-10T11:40:47;9.90;;;4.40;;
45077;SDS011;60508;42.622;25.416;2024-01-10T11:43:14;6.63;;;3.78;;
45077;SDS011;60508;42.622;25.416;2024-01-10T11:45:51;10.82;;;6.18;;
45077;SDS011;60508;42.622;25.416;2024-01-10T11:48:25;17.25;;;8.52;;
45077;SDS011;60508;42.622;25.416;2024-01-10T11:50:56;9.73;;;5.30;;
45077;SDS011;60508;42.622;25.416;2024-01-10T11:53:44;12.38;;;7.07;;
45077;SDS011;60508;42.622;25.416;2024-01-10T11:56:17;14.63;;;9.43;;
45077;SDS011;60508;42.622;25.416;2024-01-10T11:59:08;15.32;;;6.93;;
45077;SDS011;60508;42.622;25.416;2024-01-10T12:01:37;15.98;;;7.20;;
45077;SDS011;60508;42.622;25.416;2024-01-10T12:04:26;10.35;;;7.07;;
45077;SDS011;60508;42.622;25.416;2024-01-10T12:06:56;12.73;;;6.22;;
45077;SDS011;60508;42.622;25.416;2024-01-10T12:09:24;13.13;;;7.03;;
45077;SDS011;60508;42.622;25.416;2024-01-10T12:11:51;12.95;;;5.85;;
45077;SDS011;60508;42.622;25.416;2024-01-10T12:14:37;11.38;;;4.65;;
45077;SDS011;60508;42.622;25.416;2024-01-10T12:17:06;7.85;;;4.47;;
45077;SDS011;60508;42.622;25.416;2024-01-10T12:19:36;8.98;;;4.20;;
45077;SDS011;60508;42.622;25.416;2024-01-10T12:22:04;11.68;;;5.30;;
45077;SDS011;60508;42.622;25.416;2024-01-10T12:24:37;6.75;;;5.95;;
45077;SDS011;60508;42.622;25.416;2024-01-10T12:27:11;16.45;;;5.07;;
45077;SDS011;60508;42.622;25.416;2024-01-10T12:29:38;11.95;;;5.60;;
45077;SDS011;60508;42.622;25.416;2024-01-10T12:32:07;10.27;;;6.13;;
45077;SDS011;60508;42.622;25.416;2024-01-10T12:35:02;9.13;;;5.68;;
45077;SDS011;60508;42.622;25.416;2024-01-10T12:37:30;8.57;;;5.28;;
45077;SDS011;60508;42.622;25.416;2024-01-10T12:40:18;23.25;;;6.80;;
45077;SDS011;60508;42.622;25.416;2024-01-10T12:42:45;13.23;;;6.32;;
45077;SDS011;60508;42.622;25.416;2024-01-10T12:45:22;10.85;;;6.85;;
45077;SDS011;60508;42.622;25.416;2024-01-10T12:47:49;6.07;;;4.22;;
45077;SDS011;60508;42.622;25.416;2024-01-10T12:50:20;8.80;;;5.35;;
45077;SDS011;60508;42.622;25.416;2024-01-10T12:52:47;8.63;;;5.53;;
45077;SDS011;60508;42.622;25.416;2024-01-10T12:55:14;23.38;;;6.22;;
45077;SDS011;60508;42.622;25.416;2024-01-10T12:57:42;7.10;;;4.65;;
45077;SDS011;60508;42.622;25.416;2024-01-10T13:00:09;4.80;;;3.45;;
45077;SDS011;60508;42.622;25.416;2024-01-10T13:02:37;5.03;;;3.05;;
45077;SDS011;60508;42.622;25.416;2024-01-10T13:05:24;6.72;;;3.97;;
45077;SDS011;60508;42.622;25.416;2024-01-10T13:08:11;10.00;;;4.93;;
45077;SDS011;60508;42.622;25.416;2024-01-10T13:10:38;8.02;;;5.05;;
45077;SDS011;60508;42.622;25.416;2024-01-10T13:13:06;13.00;;;7.60;;
45077;SDS011;60508;42.622;25.416;2024-01-10T13:15:32;9.50;;;4.78;;
45077;SDS011;60508;42.622;25.416;2024-01-10T13:18:19;10.52;;;3.90;;
45077;SDS011;60508;42.622;25.416;2024-01-10T13:20:47;4.32;;;3.28;;
45077;SDS011;60508;42.622;25.416;2024-01-10T13:23:14;7.03;;;3.28;;
45077;SDS011;60508;42.622;25.416;2024-01-10T13:26:02;13.90;;;6.33;;
45077;SDS011;60508;42.622;25.416;2024-01-10T13:28:29;5.20;;;3.05;;
45077;SDS011;60508;42.622;25.416;2024-01-10T13:30:56;11.30;;;4.03;;
45077;SDS011;60508;42.622;25.416;2024-01-10T13:33:23;8.80;;;4.55;;
45077;SDS011;60508;42.622;25.416;2024-01-10T13:35:51;6.60;;;4.13;;
45077;SDS011;60508;42.622;25.416;2024-01-10T13:38:19;9.75;;;5.20;;
45077;SDS011;60508;42.622;25.416;2024-01-10T13:41:06;10.13;;;5.35;;
45077;SDS011;60508;42.622;25.416;2024-01-10T13:43:33;10.98;;;5.93;;
45077;SDS011;60508;42.622;25.416;2024-01-10T13:46:00;11.85;;;6.15;;
45077;SDS011;60508;42.622;25.416;2024-01-10T13:48:48;11.95;;;4.85;;
45077;SDS011;60508;42.622;25.416;2024-01-10T13:51:15;17.90;;;7.47;;
45077;SDS011;60508;42.622;25.416;2024-01-10T13:53:42;9.32;;;4.85;;
45077;SDS011;60508;42.622;25.416;2024-01-10T13:56:09;6.97;;;3.60;;
45077;SDS011;60508;42.622;25.416;2024-01-10T13:58:38;4.82;;;2.70;;
45077;SDS011;60508;42.622;25.416;2024-01-10T14:01:05;3.25;;;2.25;;
45077;SDS011;60508;42.622;25.416;2024-01-10T14:03:52;5.15;;;2.67;;
45077;SDS011;60508;42.622;25.416;2024-01-10T14:06:20;4.30;;;2.92;;
45077;SDS011;60508;42.622;25.416;2024-01-10T14:09:07;8.13;;;3.65;;
45077;SDS011;60508;42.622;25.416;2024-01-10T14:11:36;5.03;;;3.17;;
45077;SDS011;60508;42.622;25.416;2024-01-10T14:14:03;6.15;;;2.85;;
45077;SDS011;60508;42.622;25.416;2024-01-10T14:16:30;3.92;;;2.47;;
45077;SDS011;60508;42.622;25.416;2024-01-10T14:18:57;5.75;;;3.60;;
45077;SDS011;60508;42.622;25.416;2024-01-10T14:21:44;8.85;;;3.80;;
45077;SDS011;60508;42.622;25.416;2024-01-10T14:24:12;8.90;;;4.75;;
45077;SDS011;60508;42.622;25.416;2024-01-10T14:26:39;5.03;;;2.45;;
45077;SDS011;60508;42.622;25.416;2024-01-10T14:29:06;5.15;;;3.30;;
45077;SDS011;60508;42.622;25.416;2024-01-10T14:31:33;5.65;;;2.72;;
45077;SDS011;60508;42.622;25.416;2024-01-10T14:34:00;3.67;;;2.45;;
45077;SDS011;60508;42.622;25.416;2024-01-10T14:36:47;6.90;;;3.17;;
45077;SDS011;60508;42.622;25.416;2024-01-10T14:39:14;3.05;;;2.58;;
45077;SDS011;60508;42.622;25.416;2024-01-10T14:41:42;7.80;;;3.55;;
45077;SDS011;60508;42.622;25.416;2024-01-10T14:44:09;5.55;;;3.85;;
45077;SDS011;60508;42.622;25.416;2024-01-10T14:46:36;7.82;;;4.80;;
45077;SDS011;60508;42.622;25.416;2024-01-10T14:49:03;7.68;;;4.80;;
45077;SDS011;60508;42.622;25.416;2024-01-10T14:51:50;9.32;;;3.72;;
45077;SDS011;60508;42.622;25.416;2024-01-10T14:54:18;8.30;;;5.10;;
45077;SDS011;60508;42.622;25.416;2024-01-10T14:57:05;7.75;;;4.72;;
45077;SDS011;60508;42.622;25.416;2024-01-10T14:59:34;10.98;;;4.53;;
45077;SDS011;60508;42.622;25.416;2024-01-10T15:02:03;12.35;;;4.70;;
45077;SDS011;60508;42.622;25.416;2024-01-10T15:04:37;6.60;;;5.03;;
45077;SDS011;60508;42.622;25.416;2024-01-10T15:07:25;7.78;;;3.75;;
45077;SDS011;60508;42.622;25.416;2024-01-10T15:09:52;5.65;;;3.90;;
45077;SDS011;60508;42.622;25.416;2024-01-10T15:12:20;16.77;;;9.40;;
45077;SDS011;60508;42.622;25.416;2024-01-10T15:14:47;34.45;;;17.42;;
45077;SDS011;60508;42.622;25.416;2024-01-10T15:17:14;15.90;;;9.50;;